Time;durP1;ratioP1;P1;durP2;ratioP2;P2;SDS_P1;SDS_P2;PMS_P1;PMS_P2;Temp;Humidity;BMP_temperature;BMP_pressure;BME280_temperature;BME280_humidity;BME280_pressure;Samples;Min_cycle;Max_cycle;Signal;HPM_P1;HPM_P2
2022/02/11 00:07:11;;;;;;;4.22;2.38;;;;;;;;;;5044318;28;20066;-51
2022/02/11 00:09:38;;;;;;;6.03;3.08;;;;;;;;;;5047872;28;20021;-48
2022/02/11 00:12:04;;;;;;;5.57;3.22;;;;;;;;;;5049443;28;20028;-47
2022/02/11 00:14:39;;;;;;;6.63;3.60;;;;;;;;;;5044599;28;20496;-51
2022/02/11 00:17:06;;;;;;;5.45;3.10;;;;;;;;;;5044092;28;20024;-47
2022/02/11 00:19:32;;;;;;;6.35;3.05;;;;;;;;;;5044703;28;20614;-51
2022/02/11 00:21:58;;;;;;;5.65;2.80;;;;;;;;;;5044164;28;20025;-50
2022/02/11 00:24:24;;;;;;;4.82;2.83;;;;;;;;;;5040609;28;20037;-50
2022/02/11 00:27:15;;;;;;;4.50;2.30;;;;;;;;;;5027930;28;20504;-47
2022/02/11 00:32:41;;;;;;;8.07;2.70;;;;;;;;;;5033992;28;20066;-50
2022/02/11 00:35:11;;;;;;;6.18;2.60;;;;;;;;;;5028389;28;20029;-47
2022/02/11 00:37:40;;;;;;;5.07;2.50;;;;;;;;;;5045853;28;20549;-50
2022/02/11 00:46:03;;;;;;;3.90;2.45;;;;;;;;;;5045526;28;20102;-49
2022/02/11 01:02:23;;;;;;;;;;;;;;;;;;5059021;28;20043;-50
2022/02/11 01:04:50;;;;;;;4.85;2.38;;;;;;;;;;5058291;28;19967;-47
2022/02/11 01:07:16;;;;;;;3.42;2.10;;;;;;;;;;5023972;28;20497;-49
2022/02/11 01:09:42;;;;;;;4.57;2.20;;;;;;;;;;5025589;28;20021;-47
2022/02/11 01:12:10;;;;;;;4.20;2.28;;;;;;;;;;5025982;28;20060;-51
2022/02/11 01:14:39;;;;;;;3.92;2.13;;;;;;;;;;5025467;28;20097;-49
2022/02/11 01:17:23;;;;;;;3.97;2.38;;;;;;;;;;5044002;28;20033;-47
2022/02/11 01:19:59;;;;;;;3.95;2.42;;;;;;;;;;5044683;28;20060;-48
2022/02/11 01:25:32;;;;;;;5.45;2.40;;;;;;;;;;5027893;28;20382;-47
2022/02/11 01:54:38;;;;;;;4.43;2.50;;;;;;;;;;5048241;28;20029;-49
2022/02/11 01:57:11;;;;;;;4.75;2.38;;;;;;;;;;5048281;28;20045;-48
2022/02/11 02:13:26;;;;;;;4.18;2.40;;;;;;;;;;5049325;28;20426;-51
2022/02/11 02:56:38;;;;;;;6.32;3.50;;;;;;;;;;5048073;28;20035;-49
2022/02/11 02:59:15;;;;;;;6.18;3.40;;;;;;;;;;5048441;28;20700;-50
2022/02/11 03:54:03;;;;;;;7.82;4.60;;;;;;;;;;5046793;28;19908;-48
2022/02/11 03:56:29;;;;;;;8.00;4.47;;;;;;;;;;5046251;28;20041;-49
2022/02/11 04:55:36;;;;;;;4.43;2.08;;;;;;;;;;5044359;28;20567;-50
2022/02/11 05:00:47;;;;;;;3.17;1.83;;;;;;;;;;5045647;28;20032;-51
2022/02/11 05:03:13;;;;;;;2.28;1.85;;;;;;;;;;5045980;28;20033;-46
2022/02/11 05:05:52;;;;;;;4.03;2.28;;;;;;;;;;5044079;28;20025;-50
2022/02/11 05:08:25;;;;;;;3.42;2.03;;;;;;;;;;5045746;28;20411;-50
2022/02/11 05:10:53;;;;;;;2.55;1.73;;;;;;;;;;5049906;28;20075;-48
2022/02/11 05:13:19;;;;;;;5.03;2.63;;;;;;;;;;5049666;28;20055;-47
2022/02/11 05:15:45;;;;;;;12.00;5.70;;;;;;;;;;5047825;28;20039;-46
2022/02/11 05:18:11;;;;;;;12.27;7.38;;;;;;;;;;5048966;28;20033;-47
2022/02/11 05:20:37;;;;;;;13.88;7.22;;;;;;;;;;5049418;28;20056;-50
2022/02/11 05:23:04;;;;;;;11.98;7.13;;;;;;;;;;5049141;28;20104;-50
2022/02/11 05:25:30;;;;;;;12.20;7.10;;;;;;;;;;5047791;28;20029;-46
2022/02/11 05:27:56;;;;;;;9.80;5.95;;;;;;;;;;5029530;28;20404;-47
2022/02/11 05:30:23;;;;;;;9.07;5.13;;;;;;;;;;5029398;28;20451;-49
2022/02/11 05:32:49;;;;;;;7.38;4.28;;;;;;;;;;5029566;28;20484;-48
2022/02/11 05:35:15;;;;;;;6.38;3.83;;;;;;;;;;5029184;28;20026;-49
2022/02/11 05:37:41;;;;;;;6.00;3.22;;;;;;;;;;5048156;28;20140;-49
2022/02/11 05:40:07;;;;;;;4.43;2.80;;;;;;;;;;5037399;28;20029;-49
2022/02/11 05:42:33;;;;;;;3.40;2.58;;;;;;;;;;5029606;28;20405;-47
2022/02/11 05:44:59;;;;;;;3.85;2.65;;;;;;;;;;5029061;28;20722;-46
2022/02/11 05:47:25;;;;;;;4.10;2.75;;;;;;;;;;5029067;28;20029;-49
2022/02/11 05:49:51;;;;;;;3.33;2.28;;;;;;;;;;5030067;28;20513;-46
2022/02/11 05:52:17;;;;;;;2.47;2.05;;;;;;;;;;5037145;28;20530;-47
2022/02/11 05:54:43;;;;;;;2.47;2.15;;;;;;;;;;5048752;28;20053;-47
2022/02/11 05:57:10;;;;;;;4.05;2.50;;;;;;;;;;5047371;28;20028;-50
2022/02/11 05:59:36;;;;;;;4.00;2.70;;;;;;;;;;5047174;28;20036;-45
2022/02/11 06:02:02;;;;;;;4.00;2.50;;;;;;;;;;5049605;28;20488;-48
2022/02/11 06:04:28;;;;;;;3.65;2.47;;;;;;;;;;5048592;28;20392;-46
2022/02/11 06:06:56;;;;;;;3.47;2.50;;;;;;;;;;5039049;28;20056;-48
2022/02/11 06:09:22;;;;;;;3.65;2.42;;;;;;;;;;5028611;28;20469;-48
2022/02/11 06:11:48;;;;;;;3.80;2.63;;;;;;;;;;5028551;28;20037;-49
2022/02/11 06:14:15;;;;;;;3.53;2.50;;;;;;;;;;5028780;28;20021;-48
2022/02/11 06:16:42;;;;;;;5.13;2.83;;;;;;;;;;5028409;28;20057;-47
2022/02/11 06:19:08;;;;;;;2.83;2.30;;;;;;;;;;5028860;28;20026;-46
2022/02/11 06:21:34;;;;;;;2.72;2.35;;;;;;;;;;5033190;28;20456;-46
2022/02/11 06:24:00;;;;;;;3.15;2.17;;;;;;;;;;5048701;28;20028;-50
2022/02/11 06:26:27;;;;;;;3.47;2.28;;;;;;;;;;5048112;28;20477;-48
2022/02/11 06:28:55;;;;;;;3.60;2.58;;;;;;;;;;5048219;28;20035;-48
2022/02/11 06:31:22;;;;;;;3.08;2.17;;;;;;;;;;5046743;28;20039;-46
2022/02/11 06:33:48;;;;;;;3.90;2.47;;;;;;;;;;5048152;28;20024;-49
2022/02/11 06:36:14;;;;;;;3.30;2.28;;;;;;;;;;5048292;28;20499;-49
2022/02/11 06:38:40;;;;;;;4.03;2.20;;;;;;;;;;5047467;28;20478;-47
2022/02/11 06:41:07;;;;;;;3.42;2.15;;;;;;;;;;5045305;28;20025;-46
2022/02/11 06:43:33;;;;;;;2.90;2.20;;;;;;;;;;5048445;28;20025;-49
2022/02/11 06:46:01;;;;;;;3.20;2.15;;;;;;;;;;5046077;28;20550;-47
2022/02/11 06:48:27;;;;;;;2.40;1.83;;;;;;;;;;5047720;28;20431;-46
2022/02/11 06:50:53;;;;;;;2.67;1.85;;;;;;;;;;5029440;28;20112;-47
2022/02/11 06:53:20;;;;;;;2.25;1.80;;;;;;;;;;5026299;28;20026;-45
2022/02/11 06:55:46;;;;;;;2.35;1.80;;;;;;;;;;5026131;28;20049;-45
2022/02/11 06:58:13;;;;;;;2.53;1.98;;;;;;;;;;5031757;28;20477;-46
2022/02/11 07:00:40;;;;;;;1.98;1.48;;;;;;;;;;5045030;28;20039;-47
2022/02/11 07:03:06;;;;;;;2.35;1.75;;;;;;;;;;5047635;28;20040;-45
2022/02/11 07:05:35;;;;;;;2.25;1.75;;;;;;;;;;5048097;28;20025;-46
2022/02/11 07:08:01;;;;;;;2.40;1.95;;;;;;;;;;5047335;28;20497;-47
2022/02/11 07:10:27;;;;;;;2.03;1.50;;;;;;;;;;5046847;28;20021;-46
2022/02/11 07:12:53;;;;;;;1.95;1.20;;;;;;;;;;5047457;28;20025;-46
2022/02/11 07:15:20;;;;;;;2.30;1.30;;;;;;;;;;5044574;28;20661;-46
2022/02/11 07:17:46;;;;;;;1.58;1.20;;;;;;;;;;5040644;28;20045;-49
2022/02/11 07:20:12;;;;;;;1.85;1.30;;;;;;;;;;5031501;28;20104;-47
2022/02/11 07:22:39;;;;;;;1.23;0.90;;;;;;;;;;5026567;28;20049;-50
2022/02/11 07:25:06;;;;;;;1.27;1.00;;;;;;;;;;5029524;28;20772;-48
2022/02/11 07:27:32;;;;;;;1.05;0.98;;;;;;;;;;5043504;28;20029;-50
2022/02/11 07:29:59;;;;;;;1.05;0.90;;;;;;;;;;5029240;28;20033;-48
2022/02/11 07:32:26;;;;;;;0.80;0.80;;;;;;;;;;5026787;28;20024;-46
2022/02/11 07:34:52;;;;;;;0.80;0.80;;;;;;;;;;5027402;28;20030;-49
2022/02/11 07:37:19;;;;;;;1.35;1.20;;;;;;;;;;5033143;28;20025;-47
2022/02/11 07:39:45;;;;;;;1.10;0.95;;;;;;;;;;5041620;28;20036;-48
2022/02/11 07:42:12;;;;;;;1.50;1.00;;;;;;;;;;5046992;28;20404;-47
2022/02/11 07:44:38;;;;;;;2.17;1.00;;;;;;;;;;5033224;28;20477;-47
2022/02/11 07:47:04;;;;;;;0.85;0.80;;;;;;;;;;5033465;28;20112;-48
2022/02/11 07:49:32;;;;;;;0.75;0.70;;;;;;;;;;5045679;28;20025;-50
2022/02/11 07:51:58;;;;;;;0.57;0.57;;;;;;;;;;5045282;28;20021;-47
2022/02/11 07:54:26;;;;;;;0.60;0.60;;;;;;;;;;5044838;28;20033;-48
2022/02/11 07:56:53;;;;;;;0.93;0.80;;;;;;;;;;5045316;28;20025;-49
2022/02/11 07:59:19;;;;;;;1.25;0.70;;;;;;;;;;5044696;28;20090;-47
2022/02/11 08:01:45;;;;;;;0.90;0.80;;;;;;;;;;5045117;28;20032;-47
2022/02/11 08:04:12;;;;;;;0.60;0.60;;;;;;;;;;5045019;28;20029;-48
2022/02/11 08:06:38;;;;;;;0.82;0.75;;;;;;;;;;5044558;28;20400;-48
2022/02/11 08:09:04;;;;;;;0.77;0.60;;;;;;;;;;5045696;28;20043;-50
2022/02/11 08:11:30;;;;;;;0.82;0.70;;;;;;;;;;5044998;28;20021;-47
2022/02/11 08:13:56;;;;;;;0.80;0.80;;;;;;;;;;5044435;28;20044;-49
2022/02/11 08:16:22;;;;;;;1.25;1.00;;;;;;;;;;5044756;28;20033;-49
2022/02/11 08:18:49;;;;;;;1.30;0.80;;;;;;;;;;5044949;28;20504;-49
2022/02/11 08:21:16;;;;;;;2.00;0.90;;;;;;;;;;5044996;28;20544;-50
2022/02/11 08:23:42;;;;;;;0.95;0.70;;;;;;;;;;5044510;28;20518;-51
2022/02/11 08:26:08;;;;;;;0.82;0.80;;;;;;;;;;5044667;28;20021;-48
2022/02/11 08:28:35;;;;;;;1.17;0.95;;;;;;;;;;5044895;28;20024;-49
2022/02/11 08:31:02;;;;;;;1.13;0.90;;;;;;;;;;5045517;28;20029;-49
2022/02/11 08:33:28;;;;;;;1.17;0.90;;;;;;;;;;5044460;28;20021;-49
2022/02/11 08:35:57;;;;;;;0.90;0.80;;;;;;;;;;5044635;28;20064;-49
2022/02/11 08:38:24;;;;;;;0.93;0.80;;;;;;;;;;5044489;28;20032;-49
2022/02/11 08:40:50;;;;;;;1.00;0.80;;;;;;;;;;5043257;28;20064;-50
2022/02/11 08:43:17;;;;;;;1.05;0.77;;;;;;;;;;5042714;28;20029;-50
2022/02/11 08:45:43;;;;;;;1.02;0.80;;;;;;;;;;5044210;28;20539;-48
2022/02/11 08:48:10;;;;;;;0.90;0.80;;;;;;;;;;5042951;28;20566;-50
2022/02/11 08:50:36;;;;;;;0.70;0.70;;;;;;;;;;5044306;28;20033;-50
2022/02/11 08:53:03;;;;;;;0.80;0.80;;;;;;;;;;5045359;28;20415;-48
2022/02/11 08:55:30;;;;;;;1.02;0.93;;;;;;;;;;5044318;28;20385;-47
2022/02/11 08:57:59;;;;;;;2.17;0.95;;;;;;;;;;5044312;28;20029;-46
2022/02/11 09:00:28;;;;;;;0.65;0.65;;;;;;;;;;5044503;28;20124;-49
2022/02/11 09:02:58;;;;;;;0.73;0.73;;;;;;;;;;5044328;28;20040;-48
2022/02/11 09:05:25;;;;;;;0.93;0.80;;;;;;;;;;5044240;28;20388;-50
2022/02/11 09:07:56;;;;;;;0.70;0.70;;;;;;;;;;5044687;28;20025;-46
2022/02/11 09:10:23;;;;;;;1.17;0.80;;;;;;;;;;5044274;28;20457;-50
2022/02/11 09:12:50;;;;;;;0.85;0.70;;;;;;;;;;5044031;28;20025;-46
2022/02/11 09:15:17;;;;;;;0.88;0.80;;;;;;;;;;5044390;28;20408;-47
2022/02/11 09:17:43;;;;;;;1.08;0.70;;;;;;;;;;5044089;28;20104;-49
2022/02/11 09:20:10;;;;;;;2.22;1.20;;;;;;;;;;5044372;28;20052;-47
2022/02/11 09:22:36;;;;;;;1.05;0.80;;;;;;;;;;5043956;28;20067;-48
2022/02/11 09:25:03;;;;;;;3.38;0.95;;;;;;;;;;5044799;28;20052;-51
2022/02/11 09:27:30;;;;;;;1.02;0.90;;;;;;;;;;5043472;28;20067;-49
2022/02/11 09:29:56;;;;;;;1.35;0.90;;;;;;;;;;5044273;28;20434;-51
2022/02/11 09:32:22;;;;;;;2.03;0.95;;;;;;;;;;5044023;28;20504;-51
2022/02/11 09:34:48;;;;;;;0.82;0.80;;;;;;;;;;5044116;28;20048;-48
2022/02/11 09:37:15;;;;;;;1.40;0.90;;;;;;;;;;5044542;28;20079;-49
2022/02/11 09:39:41;;;;;;;2.95;1.10;;;;;;;;;;5043771;28;20412;-47
2022/02/11 09:42:07;;;;;;;1.45;0.95;;;;;;;;;;5043932;28;20029;-48
2022/02/11 09:44:33;;;;;;;1.55;1.00;;;;;;;;;;5044181;28;20033;-47
2022/02/11 09:46:59;;;;;;;1.33;0.90;;;;;;;;;;5044095;28;20423;-48
2022/02/11 09:49:25;;;;;;;1.60;1.00;;;;;;;;;;5043730;28;20033;-47
2022/02/11 09:51:57;;;;;;;1.35;0.93;;;;;;;;;;5044017;28;20029;-49
2022/02/11 09:54:24;;;;;;;1.05;0.90;;;;;;;;;;5043796;28;20481;-46
2022/02/11 09:56:50;;;;;;;2.42;1.05;;;;;;;;;;5047179;28;20029;-49
2022/02/11 09:59:17;;;;;;;1.10;0.90;;;;;;;;;;5047286;28;20032;-48
2022/02/11 10:01:44;;;;;;;1.38;1.08;;;;;;;;;;5047056;28;20103;-46
2022/02/11 10:04:12;;;;;;;1.10;1.00;;;;;;;;;;5047533;28;20104;-46
2022/02/11 10:06:39;;;;;;;1.90;1.23;;;;;;;;;;5047078;28;20032;-48
2022/02/11 10:09:05;;;;;;;1.20;1.10;;;;;;;;;;5047308;28;20120;-46
2022/02/11 10:11:32;;;;;;;1.73;1.00;;;;;;;;;;5047341;28;20400;-48
2022/02/11 10:14:19;;;;;;;1.48;1.10;;;;;;;;;;5046969;28;20025;-48
2022/02/11 10:16:54;;;;;;;2.58;1.10;;;;;;;;;;5047149;28;20059;-49
2022/02/11 10:19:36;;;;;;;1.17;1.08;;;;;;;;;;5046958;28;20028;-48
2022/02/11 10:22:09;;;;;;;1.00;0.90;;;;;;;;;;5047674;28;20033;-50
2022/02/11 10:24:35;;;;;;;0.75;0.75;;;;;;;;;;5046799;28;20108;-46
2022/02/11 10:27:15;;;;;;;1.45;1.10;;;;;;;;;;5047472;28;20381;-46
2022/02/11 10:29:41;;;;;;;1.95;1.10;;;;;;;;;;5046687;28;20495;-47
2022/02/11 10:32:08;;;;;;;1.00;0.80;;;;;;;;;;5046819;28;20060;-48
2022/02/11 10:34:35;;;;;;;1.17;0.80;;;;;;;;;;5047397;28;20048;-48
2022/02/11 10:37:07;;;;;;;0.88;0.82;;;;;;;;;;5047331;28;20104;-46
2022/02/11 10:39:37;;;;;;;1.20;1.00;;;;;;;;;;5045944;28;20078;-51
2022/02/11 10:42:08;;;;;;;1.10;1.00;;;;;;;;;;5029847;28;20032;-49
2022/02/11 10:44:39;;;;;;;1.45;1.08;;;;;;;;;;5030136;28;20651;-47
2022/02/11 10:47:13;;;;;;;1.30;1.05;;;;;;;;;;5048126;28;20025;-48
2022/02/11 10:49:39;;;;;;;1.10;0.87;;;;;;;;;;5033763;28;20029;-47
2022/02/11 10:52:20;;;;;;;1.80;1.02;;;;;;;;;;5039138;28;20030;-46
2022/02/11 10:54:50;;;;;;;1.00;0.90;;;;;;;;;;5047068;28;20366;-46
2022/02/11 10:57:18;;;;;;;1.27;0.90;;;;;;;;;;5041625;28;20030;-48
2022/02/11 10:59:45;;;;;;;1.30;1.00;;;;;;;;;;5052628;28;20063;-49
2022/02/11 11:02:16;;;;;;;1.63;1.00;;;;;;;;;;5031359;28;20065;-48
2022/02/11 11:04:42;;;;;;;1.63;1.30;;;;;;;;;;5041074;28;20025;-51
2022/02/11 11:07:09;;;;;;;1.38;0.90;;;;;;;;;;5045189;28;20128;-47
2022/02/11 11:09:36;;;;;;;1.35;1.20;;;;;;;;;;5048712;28;20025;-46
2022/02/11 11:12:03;;;;;;;1.85;1.10;;;;;;;;;;5044491;28;20028;-49
2022/02/11 11:14:29;;;;;;;1.83;0.85;;;;;;;;;;5040738;28;20039;-48
2022/02/11 11:16:58;;;;;;;2.00;1.10;;;;;;;;;;5028663;28;20052;-48
2022/02/11 11:19:24;;;;;;;0.95;0.90;;;;;;;;;;5034337;28;20022;-47
2022/02/11 11:22:11;;;;;;;0.75;0.70;;;;;;;;;;5045659;28;20033;-50
2022/02/11 11:24:57;;;;;;;2.33;1.20;;;;;;;;;;5030886;28;22072;-49
2022/02/11 11:27:42;;;;;;;1.52;1.20;;;;;;;;;;5041382;28;20043;-48
2022/02/11 11:30:27;;;;;;;1.33;1.20;;;;;;;;;;5052467;28;20523;-49
2022/02/11 11:33:05;;;;;;;1.83;0.95;;;;;;;;;;5027279;28;20044;-52
2022/02/11 11:35:40;;;;;;;1.95;1.10;;;;;;;;;;5027588;28;20028;-48
2022/02/11 11:38:16;;;;;;;3.22;1.23;;;;;;;;;;5027159;28;20025;-48
2022/02/11 11:40:56;;;;;;;1.05;0.88;;;;;;;;;;5027037;28;20098;-49
2022/02/11 11:43:32;;;;;;;2.15;0.88;;;;;;;;;;5036557;28;20037;-48
2022/02/11 11:46:06;;;;;;;1.38;0.90;;;;;;;;;;5030371;28;20393;-49
2022/02/11 11:48:51;;;;;;;0.82;0.82;;;;;;;;;;5040591;28;20067;-48
2022/02/11 11:51:17;;;;;;;1.67;0.82;;;;;;;;;;5033232;28;20022;-48
2022/02/11 11:53:43;;;;;;;1.50;0.80;;;;;;;;;;5035754;28;20082;-50
2022/02/11 11:56:28;;;;;;;1.38;0.75;;;;;;;;;;5030111;28;20040;-52
2022/02/11 11:58:54;;;;;;;;;;;;;;;;;;5033778;28;20040;-47
2022/02/11 12:01:20;;;;;;;1.52;0.95;;;;;;;;;;5036973;28;19913;-49
2022/02/11 12:04:05;;;;;;;2.35;1.17;;;;;;;;;;5034713;28;20033;-51
2022/02/11 12:06:32;;;;;;;2.20;1.00;;;;;;;;;;5031184;28;20037;-49
2022/02/11 12:08:58;;;;;;;0.85;0.73;;;;;;;;;;5038949;28;20032;-50
2022/02/11 12:11:24;;;;;;;0.70;0.70;;;;;;;;;;5040779;28;20030;-52
2022/02/11 12:13:50;;;;;;;0.80;0.80;;;;;;;;;;5038751;28;20096;-50
2022/02/11 12:16:17;;;;;;;1.35;0.80;;;;;;;;;;5045692;28;20033;-47
2022/02/11 12:18:46;;;;;;;2.60;1.35;;;;;;;;;;5045993;28;20431;-48
2022/02/11 12:21:13;;;;;;;5.78;2.90;;;;;;;;;;5036465;28;20060;-48
2022/02/11 12:29:10;;;;;;;;;;;;;;;;;;5047862;28;20071;-47
2022/02/11 12:31:38;;;;;;;7.65;4.03;;;;;;;;;;5034956;28;20388;-45
2022/02/11 12:34:12;;;;;;;7.85;3.58;;;;;;;;;;5039214;28;20028;-48
2022/02/11 12:36:38;;;;;;;4.43;2.35;;;;;;;;;;5033147;28;20021;-47
2022/02/11 12:39:04;;;;;;;3.88;2.00;;;;;;;;;;5036888;28;20037;-49
2022/02/11 12:41:43;;;;;;;2.10;1.60;;;;;;;;;;5026613;28;20673;-47
2022/02/11 12:44:10;;;;;;;1.50;1.35;;;;;;;;;;5034064;28;20566;-48
2022/02/11 12:46:36;;;;;;;1.58;1.20;;;;;;;;;;5025633;28;20116;-44
2022/02/11 12:49:04;;;;;;;2.58;1.60;;;;;;;;;;5026460;28;20030;-48
2022/02/11 12:51:30;;;;;;;1.92;1.10;;;;;;;;;;5024993;28;20022;-48
2022/02/11 12:54:06;;;;;;;1.80;1.05;;;;;;;;;;5025655;28;20056;-48
2022/02/11 12:56:33;;;;;;;1.20;0.85;;;;;;;;;;5034040;28;20139;-45
2022/02/11 12:59:09;;;;;;;1.23;0.70;;;;;;;;;;5045698;28;20021;-49
2022/02/11 13:01:36;;;;;;;2.17;1.00;;;;;;;;;;5044500;28;20072;-46
2022/02/11 13:04:03;;;;;;;1.63;1.30;;;;;;;;;;5045915;28;20033;-49
2022/02/11 13:06:32;;;;;;;2.97;1.60;;;;;;;;;;5033530;28;20037;-44
2022/02/11 13:09:06;;;;;;;2.17;1.40;;;;;;;;;;5025671;28;20160;-45
2022/02/11 13:11:33;;;;;;;1.58;1.08;;;;;;;;;;5026106;28;20021;-48
2022/02/11 13:14:04;;;;;;;3.38;1.17;;;;;;;;;;5028748;28;20116;-45
2022/02/11 13:16:30;;;;;;;2.47;1.10;;;;;;;;;;5022882;28;20025;-46
2022/02/11 13:18:57;;;;;;;1.20;0.90;;;;;;;;;;5025836;28;20492;-46
2022/02/11 13:21:25;;;;;;;1.35;0.88;;;;;;;;;;5024451;28;20049;-49
2022/02/11 13:23:52;;;;;;;3.50;1.50;;;;;;;;;;5025502;28;20022;-47
2022/02/11 13:26:22;;;;;;;2.55;1.05;;;;;;;;;;5025404;28;20030;-46
2022/02/11 13:28:49;;;;;;;1.80;1.10;;;;;;;;;;5028608;28;20025;-48
2022/02/11 13:31:15;;;;;;;1.60;0.85;;;;;;;;;;5034583;28;20386;-45
2022/02/11 13:33:41;;;;;;;1.17;0.82;;;;;;;;;;5058705;28;20029;-47
2022/02/11 13:36:08;;;;;;;2.22;1.25;;;;;;;;;;5049740;28;20171;-46
2022/02/11 13:38:38;;;;;;;1.17;0.93;;;;;;;;;;5056205;28;20567;-46
2022/02/11 13:41:07;;;;;;;1.40;1.10;;;;;;;;;;5031450;28;20568;-47
2022/02/11 13:43:47;;;;;;;1.17;0.90;;;;;;;;;;5035140;28;20104;-48
2022/02/11 13:46:34;;;;;;;1.33;1.00;;;;;;;;;;5042694;28;20025;-48
2022/02/11 13:49:16;;;;;;;1.65;1.17;;;;;;;;;;5035092;28;20037;-48
2022/02/11 13:53:01;;;;;;;0.80;0.80;;;;;;;;;;5048476;28;20040;-46
2022/02/11 13:54:30;;;;;;;2.40;1.20;;;;;;;;;;5044289;28;20489;-45
2022/02/11 13:56:56;;;;;;;2.65;1.10;;;;;;;;;;5040267;28;20396;-44
2022/02/11 13:59:26;;;;;;;2.20;1.00;;;;;;;;;;5048390;28;20021;-46
2022/02/11 14:01:52;;;;;;;1.52;1.00;;;;;;;;;;5043798;28;20036;-45
2022/02/11 14:04:23;;;;;;;1.20;0.80;;;;;;;;;;5047806;28;20029;-46
2022/02/11 14:06:50;;;;;;;2.58;1.00;;;;;;;;;;5044371;28;20039;-47
2022/02/11 14:09:32;;;;;;;1.65;0.90;;;;;;;;;;5038384;28;20413;-46
2022/02/11 14:11:58;;;;;;;3.58;1.30;;;;;;;;;;5028412;28;20046;-48
2022/02/11 14:14:25;;;;;;;1.50;0.80;;;;;;;;;;5033608;28;20018;-46
2022/02/11 14:16:51;;;;;;;1.60;0.75;;;;;;;;;;5042133;28;20138;-45
2022/02/11 14:19:24;;;;;;;1.17;0.70;;;;;;;;;;5047700;28;20021;-45
2022/02/11 14:21:50;;;;;;;1.70;0.88;;;;;;;;;;5029497;28;20032;-45
2022/02/11 14:24:16;;;;;;;2.35;1.17;;;;;;;;;;5029337;28;20052;-44
2022/02/11 14:26:42;;;;;;;1.30;1.10;;;;;;;;;;5030960;28;20045;-48
2022/02/11 14:29:08;;;;;;;2.08;1.00;;;;;;;;;;5045471;28;20021;-46
2022/02/11 14:31:34;;;;;;;1.52;0.90;;;;;;;;;;5051593;28;20035;-45
2022/02/11 14:34:00;;;;;;;1.77;0.90;;;;;;;;;;5044648;28;20025;-44
2022/02/11 14:36:26;;;;;;;1.10;0.70;;;;;;;;;;5028891;28;20021;-45
2022/02/11 14:38:52;;;;;;;1.33;1.00;;;;;;;;;;5041162;28;20123;-47
2022/02/11 14:44:03;;;;;;;2.50;1.00;;;;;;;;;;5043522;28;20036;-48
2022/02/11 14:46:29;;;;;;;0.85;0.60;;;;;;;;;;5043647;28;20493;-46
2022/02/11 14:48:55;;;;;;;2.42;1.10;;;;;;;;;;5047137;28;20493;-46
2022/02/11 14:51:22;;;;;;;1.25;0.82;;;;;;;;;;5046534;28;20029;-45
2022/02/11 14:53:48;;;;;;;1.58;0.63;;;;;;;;;;5046470;28;20071;-45
2022/02/11 14:56:14;;;;;;;2.20;0.85;;;;;;;;;;5046352;28;20033;-44
2022/02/11 14:58:43;;;;;;;0.60;0.60;;;;;;;;;;5045941;28;20033;-45
2022/02/11 15:01:09;;;;;;;2.45;0.98;;;;;;;;;;5046038;28;20031;-46
2022/02/11 15:03:35;;;;;;;1.08;0.60;;;;;;;;;;5046721;28;20032;-45
2022/02/11 15:06:02;;;;;;;1.05;0.75;;;;;;;;;;5046382;28;20060;-44
2022/02/11 15:08:28;;;;;;;1.27;0.80;;;;;;;;;;5045700;28;20144;-45
2022/02/11 15:10:54;;;;;;;2.47;1.00;;;;;;;;;;5046247;28;20108;-46
2022/02/11 15:13:20;;;;;;;1.30;0.93;;;;;;;;;;5043462;28;20043;-44
2022/02/11 15:15:46;;;;;;;2.50;0.98;;;;;;;;;;5046442;28;20577;-46
2022/02/11 15:18:13;;;;;;;3.30;1.30;;;;;;;;;;5037335;28;20029;-45
2022/02/11 15:20:41;;;;;;;1.88;1.02;;;;;;;;;;5033369;28;20490;-45
2022/02/11 15:23:07;;;;;;;1.92;0.95;;;;;;;;;;5041203;28;20025;-46
2022/02/11 15:25:33;;;;;;;1.63;0.95;;;;;;;;;;5030030;28;20095;-44
2022/02/11 15:27:59;;;;;;;1.38;0.70;;;;;;;;;;5029596;28;20029;-45
2022/02/11 15:30:25;;;;;;;1.13;0.70;;;;;;;;;;5035902;28;20870;-44
2022/02/11 15:32:51;;;;;;;1.48;0.82;;;;;;;;;;5039538;28;20017;-47
2022/02/11 15:35:17;;;;;;;0.90;0.60;;;;;;;;;;5033599;28;20476;-46
2022/02/11 15:37:44;;;;;;;1.73;1.23;;;;;;;;;;5046894;28;20083;-44
2022/02/11 15:40:10;;;;;;;2.70;1.27;;;;;;;;;;5037466;28;20033;-46
2022/02/11 15:42:36;;;;;;;2.65;0.73;;;;;;;;;;5026515;28;20065;-46
2022/02/11 15:45:03;;;;;;;1.55;0.68;;;;;;;;;;5027238;28;20029;-44
2022/02/11 15:47:29;;;;;;;2.00;0.90;;;;;;;;;;5039890;28;20079;-45
2022/02/11 15:49:56;;;;;;;1.08;0.60;;;;;;;;;;5044476;28;20305;-45
2022/02/11 15:52:23;;;;;;;2.95;1.00;;;;;;;;;;5031604;28;20029;-45
2022/02/11 15:54:49;;;;;;;1.48;0.80;;;;;;;;;;5033334;28;20445;-44
2022/02/11 15:57:15;;;;;;;1.40;0.80;;;;;;;;;;5035348;28;20037;-45
2022/02/11 15:59:45;;;;;;;1.20;0.70;;;;;;;;;;5027507;28;20029;-47
2022/02/11 16:02:11;;;;;;;1.38;0.70;;;;;;;;;;5031130;28;20036;-48
2022/02/11 16:04:37;;;;;;;1.30;0.60;;;;;;;;;;5039243;28;20034;-46
2022/02/11 16:07:03;;;;;;;1.13;0.60;;;;;;;;;;5026210;28;20021;-44
2022/02/11 16:09:30;;;;;;;1.33;0.80;;;;;;;;;;5027277;28;20461;-44
2022/02/11 16:11:57;;;;;;;1.17;0.70;;;;;;;;;;5026274;28;20044;-44
2022/02/11 16:14:24;;;;;;;1.42;0.70;;;;;;;;;;5026299;28;20075;-46
2022/02/11 16:16:50;;;;;;;2.05;1.00;;;;;;;;;;5024967;28;20037;-44
2022/02/11 16:19:16;;;;;;;0.95;0.70;;;;;;;;;;5026391;28;20071;-46
2022/02/11 16:21:43;;;;;;;1.45;0.90;;;;;;;;;;5027538;28;20033;-49
2022/02/11 16:24:09;;;;;;;1.58;1.02;;;;;;;;;;5039843;28;20291;-47
2022/02/11 16:26:36;;;;;;;1.05;0.70;;;;;;;;;;5041369;28;20073;-44
2022/02/11 16:29:02;;;;;;;1.08;0.75;;;;;;;;;;5024443;28;20025;-48
2022/02/11 16:31:29;;;;;;;4.75;0.90;;;;;;;;;;5022815;28;20397;-47
2022/02/11 16:33:56;;;;;;;2.80;1.27;;;;;;;;;;5023033;28;20047;-45
2022/02/11 16:36:23;;;;;;;1.33;0.98;;;;;;;;;;5029081;28;20021;-45
2022/02/11 16:38:50;;;;;;;1.58;0.98;;;;;;;;;;5039228;28;20032;-44
2022/02/11 16:41:18;;;;;;;2.95;1.25;;;;;;;;;;5030823;28;20409;-45
2022/02/11 16:43:44;;;;;;;1.90;1.27;;;;;;;;;;5028258;28;20570;-46
2022/02/11 16:46:10;;;;;;;1.33;1.00;;;;;;;;;;5024982;28;20117;-45
2022/02/11 16:48:36;;;;;;;1.92;1.17;;;;;;;;;;5024224;28;20025;-44
2022/02/11 16:51:03;;;;;;;1.90;1.08;;;;;;;;;;5024882;28;20100;-45
2022/02/11 16:53:29;;;;;;;2.72;1.20;;;;;;;;;;5024217;28;20033;-45
2022/02/11 16:55:55;;;;;;;2.35;1.25;;;;;;;;;;5024887;28;20404;-45
2022/02/11 16:58:22;;;;;;;2.05;1.20;;;;;;;;;;5024401;28;20100;-46
2022/02/11 17:00:48;;;;;;;1.73;1.13;;;;;;;;;;5024542;28;20516;-45
2022/02/11 17:03:14;;;;;;;3.50;1.20;;;;;;;;;;5024475;28;20038;-44
2022/02/11 17:05:40;;;;;;;2.28;1.15;;;;;;;;;;5026400;28;20025;-46
2022/02/11 17:08:06;;;;;;;3.63;1.38;;;;;;;;;;5027785;28;20048;-45
2022/02/11 17:10:32;;;;;;;3.40;1.30;;;;;;;;;;5026840;28;20021;-44
2022/02/11 17:12:59;;;;;;;1.98;1.10;;;;;;;;;;5028805;28;20045;-49
2022/02/11 17:15:25;;;;;;;2.10;1.30;;;;;;;;;;5030968;28;20021;-45
2022/02/11 17:17:51;;;;;;;1.85;1.00;;;;;;;;;;5049783;28;20427;-46
2022/02/11 17:20:18;;;;;;;3.47;1.52;;;;;;;;;;5047504;28;20694;-44
2022/02/11 17:22:45;;;;;;;2.50;1.02;;;;;;;;;;5040732;28;20572;-49
2022/02/11 17:25:12;;;;;;;1.63;1.02;;;;;;;;;;5029695;28;20115;-45
2022/02/11 17:27:38;;;;;;;1.95;1.00;;;;;;;;;;5032410;28;20498;-44
2022/02/11 17:30:06;;;;;;;2.55;1.30;;;;;;;;;;5043787;28;20025;-45
2022/02/11 17:32:32;;;;;;;3.30;1.48;;;;;;;;;;5032540;28;20061;-45
2022/02/11 17:34:58;;;;;;;3.47;1.30;;;;;;;;;;5046971;28;20031;-45
2022/02/11 17:37:24;;;;;;;3.53;1.40;;;;;;;;;;5043845;28;20509;-45
2022/02/11 17:39:50;;;;;;;3.08;1.60;;;;;;;;;;5046957;28;20455;-44
2022/02/11 17:42:17;;;;;;;3.60;1.60;;;;;;;;;;5034755;28;20103;-45
2022/02/11 17:44:43;;;;;;;2.95;1.33;;;;;;;;;;5040776;28;20060;-45
2022/02/11 17:47:13;;;;;;;1.77;0.90;;;;;;;;;;5040298;28;20116;-45
2022/02/11 17:49:40;;;;;;;5.13;1.15;;;;;;;;;;5038207;28;20108;-44
2022/02/11 17:52:06;;;;;;;3.38;1.00;;;;;;;;;;5035921;28;20069;-44
2022/02/11 17:54:33;;;;;;;2.60;1.02;;;;;;;;;;5033326;28;20035;-46
2022/02/11 17:56:59;;;;;;;3.15;1.00;;;;;;;;;;5036155;28;20037;-46
2022/02/11 17:59:25;;;;;;;2.83;1.20;;;;;;;;;;5028760;28;20037;-44
2022/02/11 18:01:52;;;;;;;1.25;0.80;;;;;;;;;;5029718;28;20037;-45
2022/02/11 18:04:19;;;;;;;2.67;1.20;;;;;;;;;;5027621;28;20415;-46
2022/02/11 18:06:45;;;;;;;1.95;0.80;;;;;;;;;;5035476;28;20029;-45
2022/02/11 18:09:11;;;;;;;2.22;1.15;;;;;;;;;;5035264;28;20060;-46
2022/02/11 18:11:37;;;;;;;3.17;1.08;;;;;;;;;;5047514;28;20668;-45
2022/02/11 18:14:04;;;;;;;1.58;1.00;;;;;;;;;;5045032;28;20112;-43
2022/02/11 18:16:31;;;;;;;3.25;1.33;;;;;;;;;;5046343;28;20036;-46
2022/02/11 18:18:57;;;;;;;3.35;1.08;;;;;;;;;;5043589;28;20026;-45
2022/02/11 18:21:23;;;;;;;1.67;1.17;;;;;;;;;;5041344;28;20036;-45
2022/02/11 18:23:50;;;;;;;1.52;0.85;;;;;;;;;;5049270;28;20120;-44
2022/02/11 18:26:19;;;;;;;2.75;0.90;;;;;;;;;;5036827;28;20030;-44
2022/02/11 18:28:52;;;;;;;3.05;1.25;;;;;;;;;;5029266;28;20021;-44
2022/02/11 18:31:19;;;;;;;2.88;1.42;;;;;;;;;;5031887;28;20022;-44
2022/02/11 18:33:45;;;;;;;2.13;1.20;;;;;;;;;;5048414;28;20607;-46
2022/02/11 18:36:11;;;;;;;4.43;1.23;;;;;;;;;;5029933;28;20053;-44
2022/02/11 18:38:37;;;;;;;2.55;1.10;;;;;;;;;;5043412;28;20029;-45
2022/02/11 18:41:03;;;;;;;2.17;0.90;;;;;;;;;;5053652;28;20033;-44